Time;durP1;ratioP1;P1;durP2;ratioP2;P2;SDS_P1;SDS_P2;PMS_P1;PMS_P2;Temp;Humidity;BMP_temperature;BMP_pressure;BME280_temperature;BME280_humidity;BME280_pressure;Samples;Min_cycle;Max_cycle;Signal;HPM_P1;HPM_P2
2022/08/26 00:01:15;;;;;;;8.43;7.13;;;21.00;99.90;;;;;;5068960;28;20044;-68
2022/08/26 00:03:41;;;;;;;7.85;6.53;;;20.90;99.90;;;;;;5071177;28;20268;-68
2022/08/26 00:06:07;;;;;;;8.02;6.60;;;20.90;99.90;;;;;;5070211;28;20568;-68
2022/08/26 00:08:34;;;;;;;8.02;6.00;;;20.90;99.90;;;;;;5071728;28;20056;-68
2022/08/26 00:11:00;;;;;;;7.88;6.72;;;21.00;99.90;;;;;;5071083;28;20051;-68
2022/08/26 00:13:26;;;;;;;7.18;6.00;;;20.90;99.90;;;;;;5071162;28;20036;-67
2022/08/26 00:15:52;;;;;;;8.93;6.07;;;20.90;99.90;;;;;;5070949;28;20095;-68
2022/08/26 00:18:18;;;;;;;8.13;6.07;;;20.90;99.90;;;;;;5071216;28;20036;-68
2022/08/26 00:20:44;;;;;;;7.40;6.25;;;20.90;99.90;;;;;;5071442;28;20049;-68
2022/08/26 00:23:10;;;;;;;8.45;6.88;;;20.70;99.90;;;;;;5070986;28;20482;-68
2022/08/26 00:25:36;;;;;;;7.70;6.72;;;20.60;99.90;;;;;;5070966;28;20040;-68
2022/08/26 00:28:04;;;;;;;9.40;6.53;;;20.40;99.90;;;;;;5071242;28;20044;-68
2022/08/26 00:30:30;;;;;;;7.00;6.15;;;20.30;99.90;;;;;;5071261;28;20097;-67
2022/08/26 00:32:57;;;;;;;8.65;6.57;;;20.20;99.90;;;;;;5070594;28;20041;-67
2022/08/26 00:35:24;;;;;;;8.18;6.93;;;20.20;99.90;;;;;;5071046;28;20440;-68
2022/08/26 00:37:50;;;;;;;9.32;6.78;;;20.20;99.90;;;;;;5070880;28;20040;-68
2022/08/26 00:40:25;;;;;;;6.95;6.25;;;20.20;99.90;;;;;;5071234;28;20040;-68
2022/08/26 00:42:51;;;;;;;8.48;6.53;;;20.30;99.90;;;;;;5070714;28;20119;-68
2022/08/26 00:45:17;;;;;;;10.00;6.10;;;20.40;99.90;;;;;;5070985;28;20135;-68
2022/08/26 00:47:46;;;;;;;8.65;7.45;;;20.40;99.90;;;;;;5071059;28;20049;-67
2022/08/26 00:50:17;;;;;;;7.82;6.63;;;20.40;99.90;;;;;;5070653;28;20044;-68
2022/08/26 00:52:44;;;;;;;9.02;7.38;;;20.30;99.90;;;;;;5069459;28;20501;-67
2022/08/26 00:55:41;;;;;;;8.32;6.80;;;20.20;99.90;;;;;;5070970;28;20037;-68
2022/08/26 00:58:07;;;;;;;9.27;8.32;;;20.10;99.90;;;;;;5071245;28;20376;-68
2022/08/26 01:00:34;;;;;;;9.05;8.05;;;20.00;99.90;;;;;;5070566;28;20043;-68
2022/08/26 01:03:01;;;;;;;10.68;8.15;;;20.00;99.90;;;;;;5070494;28;20040;-68
2022/08/26 01:05:28;;;;;;;13.30;8.88;;;20.00;99.90;;;;;;5071223;28;20178;-68
2022/08/26 01:07:54;;;;;;;11.50;10.25;;;20.00;99.90;;;;;;5070746;28;20056;-68
2022/08/26 01:10:26;;;;;;;11.45;10.18;;;19.90;99.90;;;;;;5070620;28;20393;-68
2022/08/26 01:13:01;;;;;;;12.40;10.98;;;19.90;99.90;;;;;;5070078;28;20040;-68
2022/08/26 01:15:34;;;;;;;14.07;11.88;;;19.90;99.90;;;;;;5073902;28;20052;-68
2022/08/26 01:18:04;;;;;;;13.55;12.15;;;19.70;99.90;;;;;;5073745;28;20049;-68
2022/08/26 01:21:05;;;;;;;15.82;13.05;;;19.70;99.90;;;;;;5074824;28;20046;-69
2022/08/26 01:23:38;;;;;;;15.60;14.02;;;19.80;99.90;;;;;;5067145;28;20393;-68
2022/08/26 01:26:11;;;;;;;16.20;14.35;;;19.90;99.90;;;;;;5070888;28;20464;-68
2022/08/26 01:28:39;;;;;;;16.48;14.77;;;20.00;99.90;;;;;;5073359;28;20059;-68
2022/08/26 01:31:08;;;;;;;17.70;14.43;;;20.00;99.90;;;;;;5073253;28;20119;-68
2022/08/26 01:33:46;;;;;;;17.42;14.98;;;20.10;99.90;;;;;;5074179;28;20394;-68
2022/08/26 01:36:14;;;;;;;17.52;15.73;;;20.10;99.90;;;;;;5073942;28;20036;-69
2022/08/26 01:38:41;;;;;;;17.48;15.60;;;20.10;99.90;;;;;;5054571;28;20045;-69
2022/08/26 01:41:09;;;;;;;17.92;16.02;;;20.10;99.90;;;;;;5072031;28;20044;-68
2022/08/26 01:43:38;;;;;;;18.48;16.45;;;20.10;99.90;;;;;;5073928;28;20056;-68
2022/08/26 01:46:05;;;;;;;19.50;17.40;;;20.20;99.90;;;;;;5073528;28;20054;-68
2022/08/26 01:48:33;;;;;;;19.58;17.20;;;20.20;99.90;;;;;;5074201;28;20123;-68
2022/08/26 01:51:02;;;;;;;19.30;16.77;;;20.10;99.90;;;;;;5073811;28;20084;-68
2022/08/26 01:53:28;;;;;;;19.70;17.58;;;20.20;99.90;;;;;;5074045;28;20396;-68
2022/08/26 01:55:57;;;;;;;21.90;19.17;;;20.20;99.90;;;;;;5074454;28;20090;-69
2022/08/26 01:58:31;;;;;;;21.17;16.38;;;20.20;99.90;;;;;;5073962;28;20040;-68
2022/08/26 02:00:58;;;;;;;21.10;17.70;;;20.10;99.90;;;;;;5065050;28;20084;-67
2022/08/26 02:03:25;;;;;;;20.50;17.58;;;20.10;99.90;;;;;;5073591;28;20123;-67
2022/08/26 02:05:58;;;;;;;23.42;18.08;;;20.00;99.90;;;;;;5073810;28;20123;-68
2022/08/26 02:08:37;;;;;;;19.92;17.73;;;20.10;99.90;;;;;;5073929;28;20098;-68
2022/08/26 02:11:03;;;;;;;21.77;17.80;;;20.00;99.90;;;;;;5072661;28;20350;-67
2022/08/26 02:13:31;;;;;;;24.23;17.48;;;20.10;99.90;;;;;;5073232;28;20102;-68
2022/08/26 02:16:00;;;;;;;21.27;17.08;;;20.10;99.90;;;;;;5073277;28;20609;-68
2022/08/26 02:18:29;;;;;;;22.40;17.85;;;20.10;99.90;;;;;;5073734;28;20047;-68
2022/08/26 02:20:55;;;;;;;22.70;17.98;;;20.10;99.90;;;;;;5073489;28;20048;-68
2022/08/26 02:23:21;;;;;;;22.92;17.83;;;20.20;99.90;;;;;;5072334;28;20041;-68
2022/08/26 02:26:07;;;;;;;22.05;16.85;;;20.20;99.90;;;;;;5071884;28;20106;-68
2022/08/26 02:28:39;;;;;;;22.50;16.15;;;20.30;99.90;;;;;;5071564;28;20151;-69
2022/08/26 02:31:05;;;;;;;22.52;16.95;;;20.30;99.90;;;;;;5073302;28;20059;-68
2022/08/26 02:33:31;;;;;;;22.02;16.80;;;20.30;99.90;;;;;;5072640;28;20461;-68
2022/08/26 02:35:58;;;;;;;21.70;16.83;;;20.30;99.90;;;;;;5073155;28;20044;-68
2022/08/26 02:38:23;;;;;;;19.10;15.90;;;20.30;99.90;;;;;;5072875;28;20550;-68
2022/08/26 02:40:49;;;;;;;21.83;16.33;;;20.40;99.90;;;;;;5072023;28;20036;-69
2022/08/26 02:43:15;;;;;;;18.08;15.50;;;20.40;99.90;;;;;;5072189;28;20370;-68
2022/08/26 02:45:41;;;;;;;20.80;16.00;;;20.30;99.90;;;;;;5073259;28;20055;-68
2022/08/26 02:48:11;;;;;;;22.08;16.05;;;20.40;99.90;;;;;;5072279;28;20056;-68
2022/08/26 02:50:37;;;;;;;20.02;15.98;;;20.40;99.90;;;;;;5060682;28;20052;-69
2022/08/26 02:53:03;;;;;;;18.98;15.43;;;20.40;99.90;;;;;;5073266;28;20059;-69
2022/08/26 02:55:30;;;;;;;21.33;15.32;;;20.40;99.90;;;;;;5072525;28;20477;-69
2022/08/26 02:57:56;;;;;;;21.45;14.65;;;20.40;99.90;;;;;;5073005;28;20047;-69
2022/08/26 03:00:23;;;;;;;20.05;15.20;;;20.40;99.90;;;;;;5072746;28;20385;-68
2022/08/26 03:02:49;;;;;;;21.95;15.15;;;20.40;99.90;;;;;;5071947;28;20064;-68
2022/08/26 03:05:16;;;;;;;19.50;15.15;;;20.50;99.90;;;;;;5072490;28;20443;-69
2022/08/26 03:07:42;;;;;;;17.73;14.98;;;20.50;99.90;;;;;;5072728;28;20116;-68
2022/08/26 03:10:11;;;;;;;19.10;14.80;;;20.50;99.90;;;;;;5072740;28;20123;-67
2022/08/26 03:12:37;;;;;;;17.70;15.73;;;20.50;99.90;;;;;;5072380;28;20492;-68
2022/08/26 03:15:04;;;;;;;18.20;14.40;;;20.50;99.90;;;;;;5072599;28;20514;-68
2022/08/26 03:17:30;;;;;;;19.90;14.98;;;20.50;99.90;;;;;;5071500;28;20106;-68
2022/08/26 03:19:56;;;;;;;18.58;14.40;;;20.50;99.90;;;;;;5072700;28;20044;-68
2022/08/26 03:22:21;;;;;;;18.85;14.85;;;20.50;99.90;;;;;;5072511;28;20052;-68
2022/08/26 03:24:48;;;;;;;19.55;15.27;;;20.50;99.90;;;;;;5070577;28;20040;-68
2022/08/26 03:27:13;;;;;;;18.13;13.77;;;20.50;99.90;;;;;;5069748;28;20076;-70
2022/08/26 03:32:24;;;;;;;17.40;14.63;;;20.50;99.90;;;;;;5069381;28;20055;-68
2022/08/26 03:34:50;;;;;;;19.20;14.93;;;20.50;99.90;;;;;;5071510;28;20400;-68
2022/08/26 03:37:15;;;;;;;18.02;14.38;;;20.50;99.90;;;;;;5070167;28;20135;-68
2022/08/26 03:39:41;;;;;;;18.33;14.57;;;20.50;99.90;;;;;;5072134;28;20040;-68
2022/08/26 03:42:07;;;;;;;20.27;15.45;;;20.50;99.90;;;;;;5071692;28;20056;-68
2022/08/26 03:44:32;;;;;;;19.45;15.05;;;20.50;99.90;;;;;;5071585;28;20067;-68
2022/08/26 03:46:58;;;;;;;18.00;14.35;;;20.50;99.90;;;;;;5071827;28;20040;-67
2022/08/26 03:49:24;;;;;;;18.52;13.80;;;20.50;99.90;;;;;;5071836;28;20185;-68
2022/08/26 03:51:50;;;;;;;18.08;14.68;;;20.50;99.90;;;;;;5071460;28;20051;-68
2022/08/26 03:54:15;;;;;;;19.48;14.88;;;20.40;99.90;;;;;;5071766;28;20048;-68
2022/08/26 03:56:41;;;;;;;19.63;14.50;;;20.40;99.90;;;;;;5071206;28;20385;-68
2022/08/26 03:59:07;;;;;;;18.70;13.93;;;20.40;99.90;;;;;;5071226;28;20052;-68
2022/08/26 04:01:32;;;;;;;19.52;15.07;;;20.40;99.90;;;;;;5071654;28;20070;-68
2022/08/26 04:03:58;;;;;;;18.73;14.93;;;20.40;99.90;;;;;;5071088;28;20041;-68
2022/08/26 04:06:29;;;;;;;18.20;14.57;;;20.50;99.90;;;;;;5071644;28;20051;-68
2022/08/26 04:08:57;;;;;;;18.10;13.40;;;20.50;99.90;;;;;;5071530;28;20111;-68
2022/08/26 04:11:30;;;;;;;17.38;14.50;;;20.50;99.90;;;;;;5070121;28;20080;-68
2022/08/26 04:13:58;;;;;;;18.17;14.93;;;20.50;99.90;;;;;;5071206;28;20044;-69
2022/08/26 04:16:24;;;;;;;19.45;15.43;;;20.60;99.90;;;;;;5071250;28;20352;-68
2022/08/26 04:18:50;;;;;;;19.33;14.65;;;20.50;99.90;;;;;;5070077;28;20037;-69
2022/08/26 04:21:16;;;;;;;17.45;14.02;;;20.50;99.90;;;;;;5070170;28;20094;-69
2022/08/26 04:23:42;;;;;;;18.83;15.43;;;20.50;99.90;;;;;;5070330;28;20473;-69
2022/08/26 04:26:07;;;;;;;19.67;15.27;;;20.50;99.90;;;;;;5070159;28;20039;-68
2022/08/26 04:28:34;;;;;;;18.63;15.13;;;20.50;99.90;;;;;;5071194;28;20044;-68
2022/08/26 04:30:59;;;;;;;18.63;14.52;;;20.50;99.90;;;;;;5070994;28;20048;-69
2022/08/26 04:33:25;;;;;;;17.75;14.48;;;20.50;99.90;;;;;;5070722;28;20032;-68
2022/08/26 04:36:02;;;;;;;19.50;14.50;;;20.40;99.90;;;;;;5071082;28;20091;-69
2022/08/26 04:38:29;;;;;;;19.83;15.57;;;20.40;99.90;;;;;;5070733;28;20076;-68
2022/08/26 04:40:55;;;;;;;19.70;14.77;;;20.40;99.90;;;;;;5071196;28;20399;-68
2022/08/26 04:43:20;;;;;;;19.42;14.90;;;20.40;99.90;;;;;;5070964;28;20040;-68
2022/08/26 04:45:46;;;;;;;18.80;13.82;;;20.40;99.90;;;;;;5069994;28;20036;-67
2022/08/26 04:48:12;;;;;;;20.98;15.43;;;20.40;99.90;;;;;;5070934;28;20045;-67
2022/08/26 04:50:37;;;;;;;21.35;14.93;;;20.40;99.90;;;;;;5070998;28;20053;-67
2022/08/26 04:53:03;;;;;;;19.63;15.07;;;20.40;99.90;;;;;;5069064;28;20052;-68
2022/08/26 04:55:29;;;;;;;18.65;14.57;;;20.40;99.90;;;;;;5070000;28;20060;-68
2022/08/26 04:57:56;;;;;;;18.70;14.43;;;20.40;99.90;;;;;;5070885;28;20048;-68
2022/08/26 05:00:22;;;;;;;16.95;13.27;;;20.50;99.90;;;;;;5070900;28;20048;-68
2022/08/26 05:02:47;;;;;;;17.10;13.82;;;20.40;99.90;;;;;;5069156;28;20125;-68
2022/08/26 05:05:13;;;;;;;19.50;14.07;;;20.50;99.90;;;;;;5070706;28;20048;-68
2022/08/26 05:07:39;;;;;;;20.00;13.15;;;20.50;99.90;;;;;;5070740;28;20452;-68
2022/08/26 05:10:06;;;;;;;19.50;13.45;;;20.50;99.90;;;;;;5070195;28;20377;-68
2022/08/26 05:12:32;;;;;;;19.83;14.15;;;20.50;99.90;;;;;;5070208;28;20036;-68
2022/08/26 05:14:58;;;;;;;15.23;13.15;;;20.60;99.90;;;;;;5070628;28;20052;-68
2022/08/26 05:17:26;;;;;;;19.33;13.07;;;20.60;99.90;;;;;;5070422;28;20413;-67
2022/08/26 05:19:51;;;;;;;17.67;12.73;;;20.60;99.90;;;;;;5069753;28;20044;-67
2022/08/26 05:22:18;;;;;;;18.92;13.02;;;20.60;99.90;;;;;;5070695;28;20428;-67
2022/08/26 05:24:45;;;;;;;16.42;11.75;;;20.60;99.90;;;;;;5070756;28;20119;-67
2022/08/26 05:27:12;;;;;;;18.80;12.57;;;20.60;99.90;;;;;;5070833;28;20040;-67
2022/08/26 05:29:38;;;;;;;16.75;12.40;;;20.60;99.90;;;;;;5070313;28;20048;-67
2022/08/26 05:32:04;;;;;;;16.30;12.15;;;20.60;99.90;;;;;;5070022;28;20166;-68
2022/08/26 05:34:31;;;;;;;15.40;12.23;;;20.60;99.90;;;;;;5070547;28;20485;-68
2022/08/26 05:36:57;;;;;;;15.80;12.13;;;20.70;99.90;;;;;;5070458;28;20037;-68
2022/08/26 05:39:23;;;;;;;14.98;11.60;;;20.60;99.90;;;;;;5069675;28;20052;-68
2022/08/26 05:41:49;;;;;;;16.02;11.70;;;20.60;99.90;;;;;;5070363;28;20044;-68
2022/08/26 05:44:17;;;;;;;14.77;10.75;;;20.60;99.90;;;;;;5070575;28;20032;-68
2022/08/26 05:46:44;;;;;;;18.60;11.52;;;20.60;99.90;;;;;;5070012;28;20355;-68
2022/08/26 05:49:12;;;;;;;13.77;10.77;;;20.60;99.90;;;;;;5070479;28;20381;-67
2022/08/26 05:51:39;;;;;;;13.02;10.48;;;20.60;99.90;;;;;;5070016;28;20056;-67
2022/08/26 05:54:07;;;;;;;15.75;10.48;;;20.70;99.90;;;;;;5070378;28;20082;-68
2022/08/26 05:56:33;;;;;;;15.63;11.20;;;20.70;99.90;;;;;;5069162;28;20087;-68
2022/08/26 05:59:01;;;;;;;12.35;9.57;;;20.70;99.90;;;;;;5070323;28;20731;-68
2022/08/26 06:01:28;;;;;;;13.43;10.05;;;20.70;99.90;;;;;;5073610;28;20493;-68
2022/08/26 06:03:56;;;;;;;17.25;10.63;;;20.80;99.90;;;;;;5073340;28;20041;-68
2022/08/26 06:06:27;;;;;;;16.48;10.70;;;20.80;99.90;;;;;;5073612;28;20041;-67
2022/08/26 06:08:54;;;;;;;13.85;10.73;;;20.80;99.90;;;;;;5073699;28;20036;-68
2022/08/26 06:11:25;;;;;;;13.75;10.15;;;20.80;99.90;;;;;;5055918;28;20105;-68
2022/08/26 06:13:53;;;;;;;16.30;10.32;;;20.80;99.90;;;;;;5073603;28;20086;-61
2022/08/26 06:16:22;;;;;;;14.10;10.32;;;20.90;99.90;;;;;;5073746;28;20098;-62
2022/08/26 06:18:49;;;;;;;13.35;9.38;;;20.90;99.90;;;;;;5073561;28;20047;-62
2022/08/26 06:21:17;;;;;;;12.43;9.93;;;21.00;99.90;;;;;;5073465;28;20041;-63
2022/08/26 06:26:29;;;;;;;14.25;9.43;;;21.00;99.90;;;;;;5068566;28;20103;-63
2022/08/26 06:28:55;;;;;;;13.60;10.00;;;21.10;99.90;;;;;;5071621;28;20472;-62
2022/08/26 06:31:22;;;;;;;14.10;9.77;;;21.10;99.90;;;;;;5071690;28;20041;-62
2022/08/26 06:33:49;;;;;;;15.63;10.20;;;21.10;99.90;;;;;;5072936;28;20415;-62
2022/08/26 06:36:18;;;;;;;13.02;10.05;;;21.10;99.90;;;;;;5073158;28;20079;-63
2022/08/26 06:38:44;;;;;;;13.88;10.27;;;21.00;99.90;;;;;;5073301;28;20097;-62
2022/08/26 06:41:10;;;;;;;13.77;9.88;;;21.00;99.90;;;;;;5073105;28;20040;-63
2022/08/26 06:43:37;;;;;;;14.43;10.50;;;21.00;99.90;;;;;;5073069;28;20439;-68
2022/08/26 06:46:06;;;;;;;13.82;9.40;;;21.00;99.90;;;;;;5071829;28;20095;-68
2022/08/26 06:48:32;;;;;;;12.52;10.15;;;21.10;99.90;;;;;;5073162;28;20054;-68
2022/08/26 06:51:08;;;;;;;13.65;9.50;;;21.10;99.90;;;;;;5072735;28;20059;-68
2022/08/26 06:53:35;;;;;;;12.13;9.25;;;21.10;99.90;;;;;;5072695;28;20083;-68
2022/08/26 06:56:03;;;;;;;14.65;9.43;;;21.20;99.90;;;;;;5073153;28;20093;-68
2022/08/26 06:58:30;;;;;;;12.95;9.32;;;21.20;99.90;;;;;;5072730;28;20532;-67
2022/08/26 07:00:56;;;;;;;11.85;8.50;;;21.30;99.90;;;;;;5072313;28;20370;-67
2022/08/26 07:03:21;;;;;;;12.38;8.65;;;21.30;99.90;;;;;;5071197;28;20047;-68
2022/08/26 07:05:48;;;;;;;11.68;8.68;;;21.30;99.90;;;;;;5072733;28;20098;-67
2022/08/26 07:08:14;;;;;;;12.95;8.38;;;21.30;99.90;;;;;;5072396;28;20048;-67
2022/08/26 07:10:41;;;;;;;10.90;7.65;;;21.40;99.90;;;;;;5072704;28;20049;-67
2022/08/26 07:13:07;;;;;;;12.13;8.10;;;21.50;99.90;;;;;;5070463;28;20422;-68
2022/08/26 07:15:34;;;;;;;11.82;8.80;;;21.60;99.90;;;;;;5072426;28;20068;-68
2022/08/26 07:18:01;;;;;;;10.70;7.40;;;21.60;99.90;;;;;;5072413;28;20374;-68
2022/08/26 07:20:27;;;;;;;11.68;7.18;;;21.60;99.90;;;;;;5061505;28;20045;-68
2022/08/26 07:22:53;;;;;;;12.55;7.93;;;21.60;99.90;;;;;;5053910;28;20868;-69
2022/08/26 07:25:19;;;;;;;10.40;7.13;;;21.70;99.90;;;;;;5061027;28;20165;-63
2022/08/26 07:27:45;;;;;;;10.40;7.53;;;21.70;99.90;;;;;;5069456;28;20153;-61
2022/08/26 07:30:11;;;;;;;10.07;7.57;;;21.80;99.90;;;;;;5063405;28;20374;-64
2022/08/26 07:32:37;;;;;;;10.27;6.85;;;21.80;99.90;;;;;;5062335;28;20037;-62
2022/08/26 07:35:04;;;;;;;10.02;6.68;;;21.80;99.90;;;;;;5061546;28;20051;-64
2022/08/26 07:37:30;;;;;;;9.85;6.78;;;21.80;99.90;;;;;;5060508;28;20045;-62
2022/08/26 07:39:56;;;;;;;8.55;6.63;;;21.80;99.90;;;;;;5061155;28;20091;-63
2022/08/26 07:42:22;;;;;;;10.65;6.82;;;21.80;99.90;;;;;;5071228;28;20477;-63
2022/08/26 07:44:48;;;;;;;10.48;6.53;;;21.90;99.90;;;;;;5051603;28;20462;-63
2022/08/26 07:47:15;;;;;;;10.82;6.32;;;21.90;99.90;;;;;;5071259;28;20113;-63
2022/08/26 07:49:41;;;;;;;10.95;7.15;;;22.00;99.90;;;;;;5051423;28;20063;-63
2022/08/26 07:52:08;;;;;;;9.52;6.95;;;22.00;99.90;;;;;;5055587;28;20493;-63
2022/08/26 07:54:36;;;;;;;10.55;6.68;;;22.00;99.90;;;;;;5050830;28;20130;-63
2022/08/26 07:57:02;;;;;;;11.57;6.80;;;22.00;99.90;;;;;;5054980;28;20507;-63
2022/08/26 07:59:28;;;;;;;8.95;6.13;;;22.00;99.90;;;;;;5061400;28;20455;-63
2022/08/26 08:01:55;;;;;;;9.85;6.28;;;22.10;99.90;;;;;;5051598;28;20128;-63
2022/08/26 08:04:20;;;;;;;8.15;6.30;;;22.20;99.90;;;;;;5050509;28;20242;-63
2022/08/26 08:06:46;;;;;;;9.38;6.20;;;22.20;99.90;;;;;;5050845;28;20128;-63
2022/08/26 08:09:13;;;;;;;9.98;6.07;;;22.30;99.90;;;;;;5059448;28;20048;-64
2022/08/26 08:11:40;;;;;;;8.30;5.30;;;22.30;99.90;;;;;;5051214;28;20033;-63
2022/08/26 08:14:06;;;;;;;6.53;4.93;;;22.40;99.90;;;;;;5065890;28;20037;-63
2022/08/26 08:16:32;;;;;;;8.18;4.20;;;22.50;99.90;;;;;;5061079;28;20044;-63
2022/08/26 08:18:58;;;;;;;7.70;4.80;;;22.50;99.90;;;;;;5069059;28;20500;-63
2022/08/26 08:21:25;;;;;;;7.72;5.13;;;22.40;99.90;;;;;;5070121;28;20052;-63
2022/08/26 08:23:52;;;;;;;6.38;4.38;;;22.40;99.90;;;;;;5070603;28;20350;-62
2022/08/26 08:26:18;;;;;;;6.97;4.88;;;22.30;99.90;;;;;;5069940;28;20048;-63
2022/08/26 08:28:45;;;;;;;8.73;4.72;;;22.40;99.90;;;;;;5070801;28;20129;-62
2022/08/26 08:31:19;;;;;;;9.52;4.75;;;22.50;99.90;;;;;;5070995;28;20049;-62
2022/08/26 08:33:45;;;;;;;7.25;4.78;;;22.70;99.90;;;;;;5070177;28;20040;-62
2022/08/26 08:36:13;;;;;;;7.38;4.40;;;22.70;99.90;;;;;;5070508;28;20037;-62
2022/08/26 08:38:39;;;;;;;7.95;4.40;;;22.70;99.90;;;;;;5069518;28;20052;-62
2022/08/26 08:41:12;;;;;;;6.38;3.75;;;22.80;99.90;;;;;;5070755;28;20040;-62
2022/08/26 08:43:42;;;;;;;9.40;4.43;;;22.90;99.90;;;;;;5070201;28;20048;-63
2022/08/26 08:46:12;;;;;;;6.50;4.68;;;23.00;99.90;;;;;;5070606;28;20052;-62
2022/08/26 08:48:42;;;;;;;7.13;4.22;;;23.10;99.90;;;;;;5070276;28;20442;-63
2022/08/26 08:51:25;;;;;;;6.63;3.72;;;23.20;99.90;;;;;;5070384;28;20051;-62
2022/08/26 08:53:53;;;;;;;8.32;4.07;;;23.20;99.90;;;;;;5070471;28;20473;-62
2022/08/26 08:56:45;;;;;;;6.38;3.72;;;23.20;99.90;;;;;;5070605;28;20117;-63
2022/08/26 08:59:26;;;;;;;6.80;3.78;;;23.10;99.90;;;;;;5070519;28;20040;-62
2022/08/26 09:02:18;;;;;;;7.68;3.75;;;23.10;99.90;;;;;;5071054;28;20047;-62
2022/08/26 09:04:46;;;;;;;6.63;4.10;;;23.10;99.90;;;;;;5070291;28;20055;-62
2022/08/26 09:07:19;;;;;;;7.03;3.70;;;23.10;99.90;;;;;;5070812;28;20186;-62
2022/08/26 09:09:53;;;;;;;4.95;3.47;;;23.10;99.90;;;;;;5070920;28;20036;-63
2022/08/26 09:12:23;;;;;;;9.25;4.03;;;23.20;99.90;;;;;;5070578;28;20036;-63
2022/08/26 09:14:50;;;;;;;6.50;3.38;;;23.30;99.90;;;;;;5070237;28;20052;-64
2022/08/26 09:17:52;;;;;;;5.80;3.50;;;23.30;99.90;;;;;;5070872;28;20062;-63
2022/08/26 09:20:52;;;;;;;4.20;3.00;;;23.30;99.90;;;;;;5056921;28;20084;-63
2022/08/26 09:23:18;;;;;;;5.65;3.85;;;23.20;99.90;;;;;;5070589;28;20109;-62
2022/08/26 09:25:47;;;;;;;5.25;3.45;;;23.20;99.90;;;;;;5070772;28;20494;-62
2022/08/26 09:28:17;;;;;;;7.82;3.78;;;23.20;99.90;;;;;;5069161;28;20070;-61
2022/08/26 09:30:45;;;;;;;5.28;3.83;;;23.20;99.90;;;;;;5069589;28;20377;-62
2022/08/26 09:33:16;;;;;;;6.38;3.78;;;23.10;99.90;;;;;;5069915;28;20526;-62
2022/08/26 09:35:47;;;;;;;7.93;3.80;;;23.20;99.90;;;;;;5072888;28;20052;-62
2022/08/26 09:38:25;;;;;;;5.68;3.20;;;23.10;99.90;;;;;;5074542;28;20055;-62
2022/08/26 09:41:04;;;;;;;5.80;3.58;;;23.10;99.90;;;;;;5074381;28;20041;-62
2022/08/26 09:43:31;;;;;;;5.22;3.40;;;23.00;99.90;;;;;;5073963;28;20041;-62
2022/08/26 09:46:30;;;;;;;6.68;3.63;;;23.00;99.90;;;;;;5074174;28;20500;-62
2022/08/26 09:49:17;;;;;;;5.50;3.40;;;23.00;99.90;;;;;;5050820;28;20056;-63
2022/08/26 09:51:43;;;;;;;6.75;3.30;;;23.00;99.90;;;;;;5055663;28;20048;-63
2022/08/26 09:54:25;;;;;;;6.03;3.05;;;23.00;99.90;;;;;;5074150;28;20060;-63
2022/08/26 09:56:51;;;;;;;6.82;3.28;;;23.00;99.90;;;;;;5073123;28;20055;-63
2022/08/26 09:59:29;;;;;;;4.68;2.70;;;22.90;99.90;;;;;;5073627;28;20041;-63
2022/08/26 10:02:19;;;;;;;6.63;2.65;;;22.90;99.90;;;;;;5074090;28;20044;-63
2022/08/26 10:04:54;;;;;;;5.60;2.80;;;22.90;99.90;;;;;;5072738;28;20381;-65
2022/08/26 10:07:41;;;;;;;5.13;2.65;;;22.90;99.90;;;;;;5073845;28;20059;-63
2022/08/26 10:10:29;;;;;;;3.90;1.77;;;22.90;99.90;;;;;;5073757;28;20037;-63
2022/08/26 10:13:04;;;;;;;3.75;1.80;;;22.90;99.90;;;;;;5071988;28;20098;-62
2022/08/26 10:15:40;;;;;;;3.40;1.92;;;22.90;99.90;;;;;;5073695;28;20044;-62
2022/08/26 10:18:16;;;;;;;6.05;2.40;;;22.90;99.90;;;;;;5073484;28;20064;-63
2022/08/26 10:20:56;;;;;;;3.83;1.70;;;22.90;99.90;;;;;;5073237;28;20043;-63
2022/08/26 10:23:25;;;;;;;5.50;2.00;;;22.90;99.90;;;;;;5073551;28;20036;-63
2022/08/26 10:26:31;;;;;;;6.47;2.00;;;22.90;99.90;;;;;;5073583;28;20048;-63
2022/08/26 10:29:20;;;;;;;4.85;1.58;;;22.90;99.90;;;;;;5072646;28;20443;-63
2022/08/26 10:32:00;;;;;;;3.17;1.38;;;22.90;99.90;;;;;;5073241;28;20106;-63
2022/08/26 10:34:25;;;;;;;5.72;1.60;;;22.80;99.90;;;;;;5072494;28;20392;-64
2022/08/26 10:37:01;;;;;;;3.88;1.42;;;22.70;99.90;;;;;;5073348;28;20052;-64
2022/08/26 10:40:14;;;;;;;2.63;1.13;;;22.50;99.90;;;;;;5073396;28;20127;-64
2022/08/26 10:42:45;;;;;;;3.33;1.40;;;22.50;99.90;;;;;;5030482;28;20557;-64
2022/08/26 10:45:18;;;;;;;5.03;1.40;;;22.40;99.90;;;;;;4997557;28;20183;-63
2022/08/26 10:47:53;;;;;;;5.70;1.40;;;22.40;99.90;;;;;;5056497;28;20060;-64
2022/08/26 10:50:26;;;;;;;3.47;1.50;;;22.50;99.90;;;;;;5073048;28;20393;-63
2022/08/26 10:53:06;;;;;;;4.43;1.35;;;22.50;99.90;;;;;;5072333;28;20055;-63
2022/08/26 10:55:55;;;;;;;3.63;1.38;;;22.50;99.90;;;;;;5072864;28;20059;-63
2022/08/26 10:58:56;;;;;;;5.20;1.52;;;22.60;99.90;;;;;;5071599;28;20048;-62
2022/08/26 11:01:42;;;;;;;4.50;1.52;;;22.60;99.90;;;;;;5048697;28;20105;-63
2022/08/26 11:04:39;;;;;;;4.80;1.65;;;22.60;99.90;;;;;;5071744;28;20521;-63
2022/08/26 11:07:29;;;;;;;4.03;1.33;;;22.60;99.90;;;;;;5072574;28;20049;-63
2022/08/26 11:09:57;;;;;;;4.78;1.60;;;22.60;99.90;;;;;;5072898;28;20047;-64
2022/08/26 11:12:35;;;;;;;4.43;1.80;;;22.50;99.90;;;;;;5072226;28;20044;-62
2022/08/26 11:15:04;;;;;;;4.20;1.52;;;22.50;99.90;;;;;;5072525;28;20040;-63
2022/08/26 11:17:45;;;;;;;3.17;1.33;;;22.50;99.90;;;;;;5072041;28;20485;-63
2022/08/26 11:20:34;;;;;;;3.85;1.60;;;22.50;99.90;;;;;;5072263;28;20049;-62
2022/08/26 11:23:12;;;;;;;2.97;1.52;;;22.50;99.90;;;;;;5072675;28;20044;-62
2022/08/26 11:26:07;;;;;;;4.85;1.73;;;22.40;99.90;;;;;;5072472;28;20048;-63
2022/08/26 11:28:37;;;;;;;3.40;1.40;;;22.40;99.90;;;;;;5070919;28;20148;-63
2022/08/26 11:31:08;;;;;;;3.97;1.27;;;22.40;99.90;;;;;;5072377;28;20381;-63
2022/08/26 11:33:57;;;;;;;3.90;1.50;;;22.40;99.90;;;;;;5071536;28;20051;-64
2022/08/26 11:36:41;;;;;;;4.85;1.60;;;22.50;99.90;;;;;;5072204;28;20063;-63
2022/08/26 11:39:29;;;;;;;5.65;1.70;;;22.40;99.90;;;;;;5072066;28;20066;-63
2022/08/26 11:42:03;;;;;;;4.82;1.60;;;22.40;99.90;;;;;;5070932;28;20075;-62
2022/08/26 11:44:39;;;;;;;3.17;1.60;;;22.50;99.90;;;;;;5072078;28;20044;-62
2022/08/26 11:47:09;;;;;;;3.50;1.50;;;22.50;99.90;;;;;;5072062;28;20147;-62
2022/08/26 11:49:36;;;;;;;3.78;1.50;;;22.60;99.90;;;;;;5071355;28;20052;-62
2022/08/26 11:52:11;;;;;;;3.72;1.40;;;22.70;99.90;;;;;;5071344;28;20063;-63
2022/08/26 11:54:37;;;;;;;5.57;1.48;;;22.70;99.90;;;;;;5071623;28;20060;-62
2022/08/26 11:57:06;;;;;;;4.63;1.70;;;22.70;99.90;;;;;;5070793;28;20097;-62
2022/08/26 11:59:37;;;;;;;2.80;1.50;;;22.70;99.90;;;;;;5071258;28;20044;-62
2022/08/26 12:02:11;;;;;;;5.13;1.60;;;22.70;99.90;;;;;;5071314;28;20037;-62
2022/08/26 12:04:41;;;;;;;3.85;1.48;;;22.70;99.90;;;;;;5068129;28;20037;-62
2022/08/26 12:07:08;;;;;;;4.05;1.63;;;22.60;99.90;;;;;;5071647;28;20048;-63
2022/08/26 12:09:36;;;;;;;3.97;1.50;;;22.60;99.90;;;;;;5071027;28;20052;-63
2022/08/26 12:12:23;;;;;;;4.00;1.40;;;22.60;99.90;;;;;;5070162;28;20044;-63
2022/08/26 12:15:13;;;;;;;4.82;1.50;;;22.60;99.90;;;;;;5071319;28;20087;-63
2022/08/26 12:17:39;;;;;;;4.72;1.50;;;22.60;99.90;;;;;;5071672;28;20041;-63
2022/08/26 12:20:15;;;;;;;3.13;1.30;;;22.60;99.90;;;;;;5070772;28;20045;-63
2022/08/26 12:22:42;;;;;;;24.85;3.33;;;22.60;99.90;;;;;;5071639;28;20043;-63
2022/08/26 12:25:09;;;;;;;6.22;1.60;;;22.50;99.90;;;;;;5071211;28;20036;-64
2022/08/26 12:27:38;;;;;;;4.22;1.40;;;22.50;99.90;;;;;;5060726;28;20233;-63
2022/08/26 12:30:07;;;;;;;2.83;1.20;;;22.50;99.90;;;;;;5065254;28;20433;-63
2022/08/26 12:32:33;;;;;;;4.90;1.35;;;22.50;99.90;;;;;;5060963;28;20032;-63
2022/08/26 12:35:01;;;;;;;4.88;1.35;;;22.50;99.90;;;;;;5070405;28;20076;-64
2022/08/26 12:37:31;;;;;;;3.67;1.75;;;22.50;99.90;;;;;;5071091;28;20074;-64
2022/08/26 12:40:30;;;;;;;8.63;2.17;;;22.50;99.90;;;;;;5057613;28;20133;-63
2022/08/26 12:43:03;;;;;;;3.33;1.38;;;22.50;99.90;;;;;;5080506;28;20045;-62
2022/08/26 12:45:36;;;;;;;4.22;1.20;;;22.50;99.90;;;;;;5091174;28;20075;-63
2022/08/26 12:48:08;;;;;;;4.60;1.42;;;22.50;99.90;;;;;;5090977;28;20044;-63
2022/08/26 12:50:44;;;;;;;3.88;1.38;;;22.50;99.90;;;;;;5091005;28;20393;-62
2022/08/26 12:53:10;;;;;;;4.35;1.30;;;22.50;99.90;;;;;;5090435;28;20119;-64
2022/08/26 12:55:51;;;;;;;3.63;1.45;;;22.50;99.90;;;;;;5090687;28;20131;-63
2022/08/26 12:58:17;;;;;;;3.08;1.48;;;22.40;99.90;;;;;;5091038;28;20123;-63
2022/08/26 13:00:48;;;;;;;5.60;1.42;;;22.40;99.90;;;;;;5090908;28;20539;-64